Weather observations for the past three days for
Dodge Center Airport
Metric (Imperial)
Date Time (cdt) Wind (kph) Vis. (km) Weather Sky Cond. Temperature (ºC) Relative Humidity Wind Chill (°C) Heat Index (°C) Pressure Precipitation (cm)
Air Dwpt 6 hour altimeter (cm) sea level (mb) 1 hr 3 hr 6 hr
Max. Min.
05 01:55 NE 7 12.87 Fair CLR 21.6 21.6 100% 76.15 0.0
05 01:35 NE 9 12.87 Fair CLR 21.8 21.8 100% 76.15 0.0
05 01:15 NE 11 11.27 Fair CLR 22 22 100% 76.12 0.0
05 00:55 NE 11 12.87 Fair CLR 22.8 22.8 29 22.7 100% 76.12 0.0
05 00:35 NE 9 11.27 Fair CLR 22.9 22.9 100% 76.1 0.0
05 00:15 NE 9 11.27 Fair CLR 22.8 22.8 100% 76.1 0.0
04 23:55 NE 9 12.87 Fair CLR 23.3 23.3 100% 76.1 0.0
04 23:35 NE 7 12.87 Fair CLR 23.2 23.2 100% 76.1 0.0
04 23:15 NE 7 12.87 Fair CLR 23.8 23.8 100% 76.1 0.0
04 22:55 NE 7 12.87 Fair CLR 24.1 24.1 100% 23 76.1 0.0
04 22:35 NE 7 14.48 Fair CLR 24.8 24.8 100% 25 76.1 0.0
04 22:15 NE 9 14.48 Mostly Cloudy BKN028 25.2 25.2 100% 26 76.12 0.0
04 21:55 NE 9 14.48 Overcast BKN026 OVC032 25.8 25.5 98% 28 76.1 0.0
04 21:35 NE 9 14.48 Overcast BKN026 OVC033 25.8 25.8 100% 28 76.1 0.0
04 21:15 NE 7 14.48 Overcast OVC027 26.5 26.1 98% 30 76.1 0.0
04 20:55 NE 9 14.48 A Few Clouds FEW028 26.1 26 99% 29 76.05 0.0
04 20:35 N 7 14.48 Fair CLR 26 26 100% 28 76.02 0.0
04 20:15 N 11 14.48 Partly Cloudy SCT035 27.2 26.2 94% 32 76.02 0.0
04 19:55 Vrbl 6 16.09 A Few Clouds FEW040 26.4 26.4 100% 30 76 0.0
04 19:35 S 7 14.48 Fair CLR 27.2 27.1 99% 32 76 0.0
04 19:15 S 7 14.48 Fair CLR 28.5 27.2 93% 36 76 0.0
04 18:55 S 9 14.48 Fair CLR 29.5 27.6 33.2 29.5 90% 39 75.97 0.0
04 18:35 S 9 14.48 Fair CLR 30.1 27.1 84% 39 75.97 0.0
04 18:15 S 11 16.09 Fair CLR 30.6 27.1 82% 40 75.97 0.0
04 17:55 S 13 16.09 Fair CLR 31.1 26.6 77% 40 75.97 0.0
04 17:35 S 11 16.09 Fair CLR 31.4 26.6 76% 41 75.95 0.0
04 17:15 S 13 16.09 Fair CLR 31.6 26.7 75% 41 75.95 0.0
04 16:55 S 9 16.09 Fair CLR 31.6 26.5 74% 41 75.95 0.0
04 16:35 S 13 16.09 Fair CLR 31.7 27 76% 42 75.95 0.0
04 16:15 S 7 16.09 Fair CLR 30.7 27.1 81% 40 75.95 0.0
04 15:55 S 6 16.09 A Few Clouds FEW036 32.2 26.1 70% 41 75.95 0.0
04 15:35 Calm 16.09 Fair CLR 32.5 24.8 64% 40 75.95 0.0
04 15:15 Calm 16.09 Fair CLR 31.3 24.5 67% 38 75.95 0.0
04 14:55 Vrbl 6 16.09 Fair CLR 32.6 25.9 68% 41 75.95 0.0
04 14:35 Calm 16.09 Fair CLR 32.2 25.7 69% 40 75.92 0.0
04 14:15 Vrbl 6 16.09 Fair CLR 32.1 26.3 71% 41 75.92 0.0
04 13:55 S 11 16.09 Fair CLR 31.3 26.2 74% 40 75.92 0.0
04 13:35 S 13 16.09 Fair CLR 31.3 26.6 76% 40 75.92 0.0
04 13:15 S 11 16.09 Fair CLR 31 26.2 76% 39 75.92 0.0
04 12:55 S 11 16.09 Fair CLR 30.8 26.3 30.8 22.1 77% 39 75.92 0.0
04 12:35 S 6 16.09 Fair CLR 30.5 26.1 77% 38 75.95 0.0
04 12:15 S 11 16.09 Fair CLR 30.2 25.8 77% 38 75.92 0.0
04 11:55 Calm 16.09 Fair CLR 29.8 25.4 77% 36 75.92 0.0
04 11:35 Calm 16.09 Fair CLR 29.3 24.9 77% 35 75.92 0.0
04 11:15 Calm 16.09 A Few Clouds FEW120 28.8 24.7 79% 34 75.92 0.0
04 10:55 Calm 16.09 Fair CLR 29.6 24.4 74% 35 75.92 0.0
04 10:35 Calm 16.09 Fair CLR 29.1 24 74% 34 75.92 0.0
04 10:15 SW 7 16.09 Fair CLR 28.2 23.9 78% 32 75.92 0.0
04 09:55 SW 7 16.09 Fair CLR 27.4 23.8 81% 31 75.92 0.0
04 09:35 SW 13 16.09 Fair CLR 27.1 23.5 81% 30 75.9 0.0
04 09:15 SW 13 16.09 Fair CLR 26.3 23.4 84% 28 75.9 0.0
04 08:55 SW 15 16.09 Fair CLR 25.6 23.1 86% 27 75.9 0.0
04 08:35 SW 13 16.09 Fair CLR 25.3 23.1 88% 26 75.9 0.0
04 08:15 SW 15 16.09 Fair CLR 24.4 22.8 91% 24 75.9 0.0
04 07:55 SW 17 16.09 Fair CLR 23.7 22.8 95% 75.87 0.0
04 07:35 SW 11 14.48 Fair CLR 23.3 22.6 96% 75.84 0.0
04 07:15 SW 11 14.48 Fair CLR 22.1 22.1 100% 75.84 0.0
04 06:55 SW 11 14.48 Fair CLR 22.7 22.5 25.2 22.6 99% 75.84 0.0
04 06:35 SW 13 16.09 Fair CLR 23 22.5 97% 75.84 0.0
04 06:15 SW 11 16.09 Fair CLR 22.7 22.6 99% 75.84 0.0
04 05:55 SW 13 16.09 Fair CLR 23.1 22.7 98% 75.82 0.0
04 05:35 SW 11 16.09 Fair CLR 23 22.8 99% 75.82 0.0
04 05:15 SW 15 16.09 A Few Clouds FEW065 23.4 22.9 97% 75.82 0.0
04 04:55 SW 13 16.09 Partly Cloudy SCT070 23.5 23.1 98% 75.82 0.0
04 04:35 SW 11 16.09 Mostly Cloudy BKN065 23.2 23.1 99% 75.82 0.0
04 04:15 SW 11 16.09 Mostly Cloudy BKN060 23.6 23.2 98% 75.79 0.0
04 03:55 SW 13 16.09 Mostly Cloudy BKN065 23.9 23.3 96% 23 75.79 0.0
04 03:35 SW 15 16.09 Mostly Cloudy BKN065 24.1 23.3 95% 23 75.77 0.0
04 03:15 SW 17 16.09 Mostly Cloudy BKN060 24.5 23.3 93% 24 75.77 0.0
04 02:55 SW 17 16.09 Fair CLR 25 23.1 89% 26 75.77 0.0
04 02:35 SW 20 16.09 A Few Clouds FEW150 25.1 23.3 90% 26 75.79 0.0
04 02:15 SW 17 16.09 Partly Cloudy SCT150 25 23.6 92% 26 75.79 0.0
04 01:55 SW 19 16.09 A Few Clouds FEW160 25.2 23.6 91% 26 75.79 0.0
04 01:35 S 19 16.09 Mostly Cloudy BKN160 24.9 23.9 94% 25 75.79 0.0
04 01:15 S 15 16.09 Mostly Cloudy BKN160 23.7 23.7 100% 75.79 0.0
04 00:55 S 17 16.09 Partly Cloudy SCT160 23.9 23.9 26.2 22.8 100% 22 75.79 0.0
04 00:35 S 19 16.09 A Few Clouds FEW150 24 24 100% 23 75.82 0.0
04 00:15 S 17 16.09 Fair CLR 23.7 23.7 100% 75.79 0.0
03 23:55 S 15 16.09 Fair CLR 23.1 23.1 100% 75.79 0.0
03 23:35 S 15 16.09 Fair CLR 23.3 23.3 100% 75.79 0.0
03 23:15 S 13 16.09 Fair CLR 22.9 22.9 100% 75.79 0.0
03 22:55 SE 9 16.09 Fair CLR 22.8 22.8 100% 75.82 0.0
03 22:35 S 11 16.09 Fair CLR 23.2 23.2 100% 75.82 0.0
03 22:15 S 17 16.09 Fair CLR 23.7 23.7 100% 75.82 0.0
03 21:55 S 15 16.09 Fair CLR 23.4 23.4 100% 75.79 0.0
03 21:35 S 9 16.09 A Few Clouds FEW180 23.7 23.7 100% 75.82 0.0
03 21:15 S 13 16.09 Mostly Cloudy BKN180 24.2 23.7 97% 23 75.79 0.0
03 20:55 S 17 16.09 Mostly Cloudy FEW120 SCT150 BKN170 24.9 23.7 93% 25 75.79 0.0
03 20:35 S 17 16.09 Light Rain FEW140 BKN170 BKN190 24.4 24.1 98% 24 75.77 0.0
03 20:15 S 13 16.09 Mostly Cloudy SCT120 BKN190 24.1 24.1 100% 23 75.77 0.0
03 19:55 S 11 14.48 Mostly Cloudy BKN130 24.6 24.1 97% 24 75.79 0.0
03 19:35 S 11 14.48 Partly Cloudy SCT130 25 24 94% 26 75.79 0.0
03 19:15 SE 13 14.48 Fair CLR 25.7 23.9 90% 27 75.77 0.0
03 18:55 SE 13 14.48 Fair CLR 26.5 23.8 28.6 26.5 85% 29 75.77 0.0
03 18:35 SE 13 16.09 Fair CLR 27 23.6 82% 30 75.74 0.0
03 18:15 S 15 16.09 Fair CLR 27.7 23.3 77% 31 75.77 0.0
03 17:55 S 17 16.09 Fair CLR 27.7 23.2 77% 31 75.77 0.0
03 17:35 S 17 16.09 Fair CLR 28.1 23.3 75% 32 75.74 0.0
03 17:15 S 20 16.09 A Few Clouds FEW120 28.3 23 73% 32 75.74 0.0
03 16:55 S 15 16.09 Partly Cloudy SCT160 27.9 23.1 75% 31 75.74 0.0
03 16:35 S 22 16.09 Fair CLR 27.8 22.6 73% 31 75.74 0.0
03 16:15 S 24 16.09 Fair CLR 27.7 22.6 74% 31 75.77 0.0
03 15:55 SE 19 16.09 A Few Clouds FEW180 27.8 22.5 73% 31 75.77 0.0
03 15:35 SE 24 16.09 Fair CLR 28.2 22.6 72% 31 75.77 0.0
03 15:15 S 24 16.09 Fair CLR 28.2 21.9 69% 31 75.77 0.0
03 14:55 SE 15 G 31 16.09 A Few Clouds FEW170 28.1 22.6 72% 31 75.82 0.0
03 14:35 SE 20 16.09 Mostly Cloudy BKN170 28 22.6 73% 31 75.82 0.0
03 14:15 SE 22 16.09 Overcast OVC170 27.2 21.6 72% 29 75.82 0.0
03 13:55 SE 19 16.09 Partly Cloudy SCT170 28.3 22.1 69% 31 75.84 0.0
03 13:35 SE 24 16.09 Fair CLR 27.5 20.9 67% 29 75.82 0.0
03 13:15 SE 20 G 37 16.09 Fair CLR 27.2 21.1 69% 29 75.82 0.0
03 12:55 S 24 G 37 16.09 Fair CLR 26.4 20.8 27.5 20.7 71% 28 75.82 0.0 0.13
03 12:35 S 24 16.09 A Few Clouds FEW380 25.6 20.9 75% 27 75.84 0.0
03 12:15 S 30 G 37 16.09 Partly Cloudy FEW110 SCT250 SCT380 25.2 20.6 76% 26 75.87 0.0
03 11:55 S 22 G 35 16.09 Partly Cloudy SCT110 27.1 21.2 70% 29 75.9 0.0
03 11:35 S 24 G 31 16.09 Fair CLR 27.5 21.7 71% 30 75.9 0.0
03 11:15 S 13 16.09 A Few Clouds FEW100 26.3 22.1 78% 28 75.84 0.0
03 10:55 SE 17 16.09 Partly Cloudy SCT110 24.2 21.4 84% 24 75.84 0.0
03 10:35 SE 19 16.09 Mostly Cloudy SCT100 BKN140 BKN170 24 21.4 85% 24 75.84 0.0
03 10:15 SE 13 16.09 Mostly Cloudy SCT110 BKN170 22.3 21.5 95% 75.87 0.0
03 09:55 S 17 16.09 Mostly Cloudy SCT100 BKN120 BKN150 21.5 21.2 98% 75.87 0.0 0.13
03 09:35 SE 13 16.09 Mostly Cloudy FEW110 BKN150 20.8 20.8 100% 75.84 0.0
03 09:15 S 19 16.09 Overcast SCT090 BKN100 BKN120 OVC160 20.9 20.9 100% 75.84 0.0
03 08:55 S 11 16.09 Overcast OVC090 20.9 20.9 100% 75.92 0.0 0.05
03 08:35 E 11 16.09 Overcast OVC090 21.1 21.1 100% 75.9 0.0 0.05
03 07:35 S 19 6.44 Rain Fog/Mist FEW080 BKN120 OVC140 20.8 20.8 100% 75.92 0.0 0.05
03 07:15 SW 6 14.48 Light Rain FEW065 BKN140 21.1 20.9 99% 76 0.0
03 06:55 NW 19 12.87 Light Rain SCT095 BKN130 21.5 20.8 23.3 20.4 96% 76.05 0.0 0.1 0.38
03 06:35 S 19 11.27 Light Rain OVC095 21.5 20.6 95% 75.95 0.0 0.08
03 06:15 S 22 11.27 Light Rain FEW080 OVC100 21.1 20.9 99% 75.9 0.0 0.05
03 05:55 S 19 11.27 Light Rain BKN095 OVC120 21.7 20.6 94% 75.92 0.0 0.2
03 05:35 S 20 G 39 11.27 Light Rain OVC095 21.7 20.8 95% 75.92 0.0 0.18
03 05:15 SW 28 11.27 Light Rain Thunderstorm in Vicinity OVC090 22 21.1 95% 75.95 0.0 0.1
03 04:55 SW 28 G 57 11.27 Thunderstorm Light Rain FEW080 BKN095 OVC130 21.8 21.1 96% 75.97 0.0 0.08
03 04:35 SW 39 G 48 16.09 Thunderstorm in Vicinity and Breezy BKN085 BKN110 OVC130 23.3 21.8 91% 75.92 0.0
03 04:15 SW 22 16.09 Overcast SCT080 SCT110 OVC180 23.3 22.7 96% 75.9 0.0
03 03:55 S 6 16.09 Mostly Cloudy BKN180 21.5 21.5 100% 75.82 0.0
03 03:35 S 13 16.09 Fair CLR 21.1 21.1 100% 75.84 0.0
03 03:15 SE 6 16.09 Fair CLR 20.6 20.6 100% 75.84 0.0
03 02:55 SE 6 16.09 Fair CLR 20.4 20.4 100% 75.82 0.0
03 02:35 SE 9 16.09 Fair CLR 20.5 20.5 100% 75.82 0.0
03 02:15 SE 6 16.09 Fair CLR 20.9 20.9 100% 75.84 0.0
03 01:55 SE 7 16.09 Fair CLR 20.9 20.9 100% 75.84 0.0
03 01:35 SE 9 16.09 Fair CLR 21 21 100% 75.87 0.0
03 01:15 SE 9 16.09 Fair CLR 21.3 21.3 100% 75.87 0.0
03 00:55 SE 7 16.09 Fair CLR 21.5 21.5 26.9 20.8 100% 75.87 0.0
03 00:35 SE 9 16.09 Fair CLR 21.6 21.6 100% 75.87 0.0
03 00:15 SE 9 16.09 Fair CLR 21.5 21.5 100% 75.87 0.0
02 23:55 SE 11 16.09 Fair CLR 22.3 22.3 100% 75.9 0.0
02 23:35 SE 11 16.09 Fair CLR 21.6 21.6 100% 75.9 0.0
02 23:15 SE 11 16.09 Fair CLR 21.4 21.4 100% 75.9 0.0
02 22:55 SE 9 16.09 Fair CLR 20.9 20.9 100% 75.9 0.0
02 22:35 SE 9 16.09 Fair CLR 21 21 100% 75.92 0.0
02 22:15 E 6 16.09 Fair CLR 21.4 21.4 100% 75.92 0.0
02 21:55 E 6 16.09 Fair CLR 22 22 100% 75.92 0.0
02 21:35 E 6 16.09 Fair CLR 21.7 21.7 100% 75.92 0.0
02 21:15 SE 6 9.66 Fog/Mist CLR 22.4 22.4 100% 75.92 0.0
02 20:55 SE 9 16.09 Fair CLR 22.3 22.3 100% 75.9 0.0
02 20:35 SE 11 16.09 Fair CLR 22.3 22.3 100% 75.9 0.0
02 20:15 SE 7 3.22 Light Rain Fog/Mist CLR 23.3 23.3 100% 75.9 0.0
02 19:55 S 9 16.09 Fair CLR 24 23.6 98% 23 75.87 0.0
02 19:35 S 7 14.48 Fair CLR 24.9 23.7 93% 25 75.87 0.0
02 19:15 S 7 16.09 Fair CLR 26.4 23.6 85% 29 75.87 0.0
02 18:55 S 7 16.09 Fair CLR 27.5 22.8 30.8 27.5 76% 30 75.9 0.0
02 18:35 S 11 16.09 Fair CLR 27.9 22.5 73% 31 75.9 0.0
02 18:15 SW 9 16.09 Fair CLR 28.6 22.6 70% 32 75.9 0.0
02 17:55 S 11 16.09 Fair CLR 29.2 23.2 70% 33 75.9 0.0
02 17:35 S 13 16.09 Fair CLR 29.3 23.5 71% 34 75.87 0.0
02 16:55 S 15 16.09 Fair CLR 29.8 23 67% 34 75.87 0.0
02 16:35 SW 11 16.09 Fair CLR 29.8 23.9 71% 35 75.9 0.0
02 16:15 S 17 16.09 Fair CLR 29.8 24.2 72% 35 75.9 0.0
02 15:55 SW 13 16.09 Fair CLR 30.2 22.6 64% 34 75.92 0.0
02 15:35 SW 13 16.09 Fair CLR 30.8 22.9 63% 35 75.92 0.0
02 15:15 SW 11 16.09 Fair CLR 30.4 23.1 65% 35 75.92 0.0
02 14:55 S 11 16.09 A Few Clouds FEW036 29.6 23.3 69% 34 75.92 0.0
02 14:35 SW 13 16.09 Fair CLR 30 22.8 65% 34 75.92 0.0
02 14:15 Vrbl 6 16.09 Fair CLR 29.2 22.7 68% 33 75.92 0.0
02 13:55 SW 6 16.09 Fair CLR 29.8 22.6 65% 34 75.95 0.0
02 13:35 W 13 16.09 Fair CLR 29.7 22.5 65% 33 75.97 0.0
02 13:15 Vrbl 9 16.09 Fair CLR 28.9 22.2 67% 32 75.97 0.0
02 12:55 SW 13 16.09 Fair CLR 27.7 22.3 27.8 16.4 72% 30 76 0.0
02 12:35 SW 15 16.09 Fair CLR 27.4 22 72% 30 76.02 0.0
02 12:15 SW 19 16.09 Fair CLR 27 21.5 72% 29 76.02 0.0
02 11:55 SW 19 16.09 Fair CLR 26.6 21.8 75% 29 76.02 0.0
02 11:35 SW 19 16.09 Fair CLR 26 21.5 76% 28 76.02 0.0
02 11:15 SW 15 16.09 A Few Clouds FEW380 25.8 21.1 75% 27 76.02 0.0
02 10:55 S 17 16.09 Fair CLR 24.6 21 80% 25 76.02 0.0
02 10:15 SE 17 16.09 Fair CLR 23.4 20.8 85% 76 0.0
02 09:55 SE 15 16.09 Fair CLR 22.5 20.7 90% 76 0.0
02 09:35 S 17 16.09 Fair CLR 21.7 20.7 94% 76 0.0
02 09:15 SE 13 16.09 Fair CLR 20.5 20.5 100% 76.02 0.0
02 08:55 SE 13 16.09 Fair CLR 19.6 19.6 100% 76.02 0.0
02 08:35 SE 15 16.09 Fair CLR 18.9 18.9 100% 76 0.0
02 08:15 SE 13 16.09 Fair CLR 18.3 18.3 100% 76.02 0.0
02 07:55 SE 11 16.09 Fair CLR 18 18 100% 76.02 0.0
02 07:35 SE 9 14.48 Fair CLR 17.2 17.2 100% 76.05 0.0
02 07:15 SE 6 16.09 Fair CLR 16.5 16.5 100% 76.02 0.0
02 06:35 NE 11 16.09 Fair CLR 17.2 17.2 100% 76 0.0
02 06:15 E 9 16.09 Fair CLR 17.2 17.2 100% 76 0.0
02 05:55 E 11 16.09 Fair CLR 17.3 17.3 100% 76 0.0
02 05:35 E 7 16.09 Partly Cloudy SCT050 SCT140 17.7 17.7 100% 76.05 0.0
02 05:15 S 19 16.09 Overcast BKN050 BKN065 OVC150 18.4 18.3 99% 76.17 0.0
02 04:55 S 26 G 35 16.09 Mostly Cloudy BKN055 BKN160 17.8 17.8 100% 76.2 0.0
02 04:35 SE 7 16.09 Thunderstorm in Vicinity FEW055 BKN160 17.6 17.6 100% 76.05 0.0
02 04:15 E 13 16.09 A Few Clouds FEW120 17.6 17.6 100% 76 0.0
02 03:55 E 11 16.09 Mostly Cloudy BKN130 17.5 17.5 100% 76 0.0 2.29
02 03:35 E 11 16.09 Overcast OVC130 17.5 17.5 100% 76 0.0
02 03:15 E 13 16.09 Mostly Cloudy BKN140 17.8 17.8 100% 76 0.0
02 02:55 NE 13 16.09 Mostly Cloudy BKN140 18.1 18.1 100% 75.97 0.0 0.03
02 02:35 NE 19 16.09 Thunderstorm in Vicinity FEW100 BKN140 18.2 18.2 100% 76 0.0 0.03
02 02:15 NE 17 12.87 Light Rain Thunderstorm in Vicinity SCT075 SCT100 BKN120 BKN160 18.2 18.2 100% 76 0.0 0.03
Date Time (cdt) Wind (kph) Vis. (km) Weather Sky Cond. Air Dwpt Max. Min. Relative Humidity Wind Chill (°C) Heat Index (°C) altimeter (cm) sea level (mb) 1 hr 3 hr 6 hr
6 hour
Temperature (ºC) Pressure Precipitation (cm)